< Cyclone 197608 1976 Season Cyclone 197610 >
Cyclone 197609 (BETH)
General InformationTrack Information on Google MapsDetailed Wind Information || ResourceGoogle EarthGE AnimationAtom FeedGeoJSON
Detalied Best Track (Time Zone = UTC)
Year Month Day Hour Lat. Long. Pressure (hPa) Wind (kt) Class Image Chart
1976 2 13 17 -16.4 149.9 1003 25 2 -- --
1976 2 13 23 -15.9 150.3 1002 25 2 -- --
1976 2 14 05 -15.8 150.0 999 25 2 -- --
1976 2 14 11 -16.0 149.6 1001 25 2 -- --
1976 2 14 17 -16.0 150.0 1000 25 2 -- --
1976 2 14 23 -15.7 150.1 999 25 2 -- --
1976 2 15 05 -15.4 149.9 997 30 2 -- --
1976 2 15 11 -15.1 149.5 996 35 3 -- --
1976 2 15 17 -14.9 149.1 994 35 3 -- --
1976 2 15 23 -14.5 148.5 994 35 3 -- --
1976 2 16 05 -13.9 148.3 992 40 3 -- --
1976 2 16 11 -13.6 148.7 990 40 3 -- --
1976 2 16 17 -13.9 149.3 988 45 3 -- --
1976 2 16 23 -14.2 150.0 986 50 4 -- --
1976 2 17 02 -14.5 150.5 984 50 4 -- --
1976 2 17 05 -14.7 151.3 982 55 4 -- --
1976 2 17 11 -14.9 153.0 978 60 4 -- --
1976 2 17 17 -15.4 155.0 974 65 5 -- --
1976 2 17 23 -16.0 156.9 972 70 5 -- --
1976 2 18 05 -16.6 158.8 972 70 5 -- --
1976 2 18 11 -17.3 160.0 972 70 5 -- --
1976 2 18 17 -18.3 160.0 976 65 5 -- --
1976 2 18 23 -19.1 159.7 979 55 4 -- --
1976 2 19 05 -19.6 159.5 981 55 4 -- --
1976 2 19 11 -20.2 159.4 983 55 4 -- --
1976 2 19 14 -20.7 158.9 984 55 4 -- --
1976 2 19 17 -21.5 158.7 985 55 4 -- --
1976 2 19 23 -23.0 157.6 987 55 4 -- --
1976 2 20 05 -23.1 156.7 989 50 4 -- --
1976 2 20 11 -23.2 155.9 991 50 4 -- --
1976 2 20 17 -23.4 155.0 992 50 4 -- --
1976 2 20 23 -23.6 154.3 992 50 4 -- --
1976 2 21 05 -23.7 153.8 993 50 4 -- --
1976 2 21 11 -23.8 153.3 994 50 4 -- --
1976 2 21 17 -24.1 152.9 994 50 4 -- --
1976 2 21 20 -24.4 152.6 994 50 4 -- --
1976 2 21 23 -24.7 152.2 996 45 3 -- --
1976 2 22 05 -24.8 151.3 1004 25 2 -- --
< Cyclone 197608 1976 Season Cyclone 197610 >

Help